Guatay, California
Current Conditions -  °F | °C
As of 2:53 PM on Sunday 21 Dec 2014 (Local Time) from KRNM Reporting Station
Clear Clear  
Wind Chill: 65°   Ceiling: Unl
Heat Index: 65°   Visibility: 10mi
Dew Point: 50°   Wind: 9mph
Humidity: 58%   Direction: 300°WNW
Pressure: 30.05"   Gusts: NA
Location:  32.85°N, 116.56°W
Report Text: KRNM 212253Z 30008KT 10SM CLR 18/10 A3005 RMK AO2 SLP171 T01830100
Loading
Personal Weather Stations






























Interactive Weather Map New forecast layout! Learn more

10-Day Weather Forecast

Advertisements
Track Severe Weather on mobile